createdAt,value
2023-04-24T00:03:36.681Z,3.53
2023-04-24T00:08:40.620Z,2.97
2023-04-24T00:13:44.261Z,4.57
2023-04-24T00:18:49.631Z,4.65
2023-04-24T00:23:53.315Z,6.03
2023-04-24T00:28:56.940Z,4.70
2023-04-24T00:34:02.342Z,5.85
2023-04-24T00:39:06.017Z,6.82
2023-04-24T00:44:09.702Z,4.50
2023-04-24T00:49:15.437Z,5.57
2023-04-24T00:54:19.205Z,4.97
2023-04-24T00:59:22.857Z,5.57
2023-04-24T01:04:28.566Z,5.20
2023-04-24T01:09:32.372Z,10.77
2023-04-24T01:14:36.068Z,5.35
2023-04-24T01:19:41.822Z,6.40
2023-04-24T01:24:47.297Z,4.75
2023-04-24T01:34:54.258Z,4.90
2023-04-24T01:39:59.562Z,5.22
2023-04-24T01:50:08.379Z,6.82
2023-04-24T01:55:13.967Z,9.77
2023-04-24T02:00:17.700Z,6.75
2023-04-24T02:05:21.434Z,8.13
2023-04-24T02:10:26.765Z,7.50
2023-04-24T02:15:30.432Z,8.52
2023-04-24T02:20:34.096Z,9.80
2023-04-24T02:25:39.444Z,9.50
2023-04-24T02:30:43.071Z,8.38
2023-04-24T02:35:46.805Z,7.72
2023-04-24T02:40:52.177Z,8.88
2023-04-24T02:45:55.850Z,8.18
2023-04-24T02:51:00.201Z,8.38
2023-04-24T02:56:05.761Z,8.07
2023-04-24T03:06:12.246Z,8.85
2023-04-24T03:11:17.482Z,12.10
2023-04-24T03:16:21.156Z,8.98
2023-04-24T03:21:25.024Z,10.05
2023-04-24T03:26:30.407Z,11.77
2023-04-24T03:31:34.156Z,11.45
2023-04-24T03:36:37.917Z,9.75
2023-04-24T03:41:43.312Z,8.43
2023-04-24T03:46:46.952Z,9.07
2023-04-24T03:51:50.559Z,13.45
2023-04-24T03:56:56.044Z,9.85
2023-04-24T04:01:59.688Z,11.65
2023-04-24T04:07:03.349Z,10.80
2023-04-24T04:12:08.621Z,8.23
2023-04-24T04:17:12.242Z,12.07
2023-04-24T04:22:15.861Z,11.45
2023-04-24T04:27:21.112Z,10.55
2023-04-24T04:32:24.843Z,14.10
2023-04-24T04:37:28.499Z,14.27
2023-04-24T04:42:34.791Z,15.63
2023-04-24T04:47:38.850Z,13.50
2023-04-24T04:52:42.481Z,10.73
2023-04-24T04:57:48.056Z,10.15
2023-04-24T05:02:51.783Z,14.88
2023-04-24T05:07:55.469Z,11.98
2023-04-24T05:13:00.708Z,9.32
2023-04-24T05:18:04.491Z,10.77
2023-04-24T05:23:08.203Z,16.23
2023-04-24T05:28:13.489Z,18.63
2023-04-24T05:33:17.101Z,11.90
2023-04-24T05:38:20.701Z,10.38
2023-04-24T05:43:26.048Z,15.90
2023-04-24T05:48:29.644Z,16.40
2023-04-24T05:53:33.190Z,14.38
2023-04-24T05:58:38.495Z,17.25
2023-04-24T06:03:42.729Z,14.60
2023-04-24T06:08:46.391Z,12.05
2023-04-24T06:13:51.643Z,11.80
2023-04-24T06:18:55.232Z,14.43
2023-04-24T06:23:58.814Z,13.63
2023-04-24T06:29:04.091Z,16.40
2023-04-24T06:34:07.698Z,15.30
2023-04-24T06:39:11.532Z,17.15
2023-04-24T06:44:16.985Z,15.35
2023-04-24T06:49:20.633Z,14.63
2023-04-24T06:54:24.262Z,11.80
2023-04-24T06:59:29.729Z,13.80
2023-04-24T07:04:33.510Z,17.15
2023-04-24T07:09:37.135Z,15.60
2023-04-24T07:14:42.516Z,15.60
2023-04-24T07:19:46.123Z,11.93
2023-04-24T07:24:49.723Z,13.65
2023-04-24T07:29:54.980Z,11.93
2023-04-24T07:34:58.586Z,10.80
2023-04-24T07:40:02.295Z,13.70
2023-04-24T07:45:08.839Z,15.63
2023-04-24T07:50:12.903Z,13.88
2023-04-24T07:55:16.643Z,12.63
2023-04-24T08:00:22.759Z,14.50
2023-04-24T08:05:26.653Z,11.13
2023-04-24T08:10:30.408Z,11.00
2023-04-24T08:15:35.687Z,11.52
2023-04-24T08:20:39.331Z,11.87
2023-04-24T08:25:43.586Z,7.90
2023-04-24T08:30:49.063Z,13.20
2023-04-24T08:35:52.795Z,14.47
2023-04-24T08:40:58.221Z,13.60
2023-04-24T08:46:06.583Z,9.27
2023-04-24T08:51:13.570Z,12.13
2023-04-24T08:56:17.455Z,11.68
2023-04-24T09:01:22.992Z,12.75
2023-04-24T09:06:27.478Z,9.82
2023-04-24T09:11:32.354Z,11.00
2023-04-24T09:16:38.048Z,8.90
2023-04-24T09:21:41.688Z,11.88
2023-04-24T09:26:45.746Z,10.02
2023-04-24T09:31:51.033Z,10.38
2023-04-24T09:36:55.265Z,11.47
2023-04-24T09:41:59.112Z,8.98
2023-04-24T09:47:10.576Z,14.00
2023-04-24T09:52:14.188Z,10.40
2023-04-24T09:57:17.785Z,11.18
2023-04-24T10:02:23.098Z,11.23
2023-04-24T10:07:28.568Z,9.70
2023-04-24T10:12:33.337Z,10.83
2023-04-24T10:17:39.961Z,12.52
2023-04-24T10:22:43.752Z,12.07
2023-04-24T10:27:48.792Z,15.20
2023-04-24T10:32:54.371Z,12.77
2023-04-24T10:38:01.264Z,9.43
2023-04-24T10:43:05.324Z,14.65
2023-04-24T10:48:11.045Z,12.45
2023-04-24T10:53:19.217Z,13.18
2023-04-24T10:58:25.099Z,14.25
2023-04-24T11:03:31.904Z,12.18
2023-04-24T11:08:41.368Z,13.27
2023-04-24T11:14:03.689Z,14.00
2023-04-24T11:19:10.601Z,10.85
2023-04-24T11:24:34.204Z,14.90
2023-04-24T11:29:45.579Z,14.88
2023-04-24T11:34:52.155Z,16.00
2023-04-24T11:39:56.994Z,14.77
2023-04-24T11:45:01.242Z,11.48
2023-04-24T11:50:09.985Z,12.38
2023-04-24T11:55:29.315Z,17.75
2023-04-24T12:00:34.245Z,15.80
2023-04-24T12:05:40.284Z,17.00
2023-04-24T12:10:43.985Z,11.20
2023-04-24T12:15:47.639Z,16.15
2023-04-24T12:20:52.916Z,16.67
2023-04-24T12:26:01.417Z,12.57
2023-04-24T12:31:05.106Z,16.25
2023-04-24T12:36:12.452Z,16.52
2023-04-24T12:41:16.577Z,15.30
2023-04-24T12:46:21.940Z,12.98
2023-04-24T12:51:27.906Z,14.45
2023-04-24T12:56:31.488Z,15.27
2023-04-24T13:01:35.135Z,15.30
2023-04-24T13:06:40.424Z,17.40
2023-04-24T13:11:47.104Z,14.05
2023-04-24T13:16:51.094Z,14.55
2023-04-24T13:21:57.700Z,17.92
2023-04-24T13:27:01.874Z,12.63
2023-04-24T13:32:05.792Z,11.95
2023-04-24T13:37:11.137Z,13.98
2023-04-24T13:42:14.788Z,15.73
2023-04-24T13:47:18.645Z,16.85
2023-04-24T13:52:23.905Z,13.20
2023-04-24T13:57:27.580Z,13.57
2023-04-24T14:02:31.315Z,15.93
2023-04-24T14:07:36.657Z,13.93
2023-04-24T14:12:40.405Z,15.10
2023-04-24T14:17:44.242Z,18.83
2023-04-24T14:22:49.598Z,15.57
2023-04-24T14:27:53.432Z,11.80
2023-04-24T14:32:57.107Z,18.05
2023-04-24T14:38:02.445Z,14.90
2023-04-24T14:43:06.223Z,15.73
2023-04-24T14:48:12.073Z,12.73
2023-04-24T14:53:17.343Z,11.45
2023-04-24T14:58:21.099Z,20.73
2023-04-24T15:03:24.822Z,17.20
2023-04-24T15:08:30.308Z,17.45
2023-04-24T15:13:33.982Z,23.53
2023-04-24T15:18:37.638Z,21.63
2023-04-24T15:23:42.960Z,16.73
2023-04-24T15:28:46.581Z,20.57
2023-04-24T15:33:50.296Z,15.40
2023-04-24T15:38:55.672Z,18.15
2023-04-24T15:43:59.322Z,18.77
2023-04-24T15:49:02.993Z,18.17
2023-04-24T15:54:08.290Z,14.50
2023-04-24T15:59:11.936Z,15.40
2023-04-24T16:04:15.715Z,13.40
2023-04-24T16:09:21.170Z,17.65
2023-04-24T16:14:27.336Z,14.30
2023-04-24T16:19:31.014Z,14.80
2023-04-24T16:24:36.273Z,13.55
2023-04-24T16:29:39.928Z,14.15
2023-04-24T16:34:43.641Z,11.07
2023-04-24T16:39:49.089Z,13.43
2023-04-24T16:44:52.680Z,13.40
2023-04-24T16:49:56.621Z,15.30
2023-04-24T16:55:01.962Z,12.27
2023-04-24T17:00:06.760Z,16.90
2023-04-24T17:05:10.684Z,12.00
2023-04-24T17:10:16.083Z,11.63
2023-04-24T17:20:24.028Z,13.75
2023-04-24T17:25:29.602Z,15.10
2023-04-24T17:30:33.315Z,15.90
2023-04-24T17:35:36.974Z,15.48
2023-04-24T17:40:42.265Z,17.98
2023-04-24T17:50:49.289Z,17.05
2023-04-24T17:55:54.601Z,16.17
2023-04-24T18:06:01.198Z,14.23
2023-04-24T18:11:06.580Z,15.95
2023-04-24T18:16:10.315Z,17.33
2023-04-24T18:21:14.054Z,16.02
2023-04-24T18:26:20.352Z,15.52
2023-04-24T18:31:24.135Z,14.75
2023-04-24T18:36:27.813Z,16.38
2023-04-24T18:41:34.125Z,13.80
2023-04-24T18:46:38.469Z,13.15
2023-04-24T18:51:53.277Z,21.27
2023-04-24T18:56:59.928Z,16.60
2023-04-24T19:02:03.577Z,13.52
2023-04-24T19:07:07.665Z,15.68
2023-04-24T19:12:12.976Z,12.88
2023-04-24T19:17:16.661Z,15.80
2023-04-24T19:22:20.563Z,29.88
2023-04-24T19:27:25.956Z,15.23
2023-04-24T19:32:29.680Z,30.42
2023-04-24T19:37:33.625Z,20.40
2023-04-24T19:42:43.943Z,15.65
2023-04-24T19:47:48.212Z,10.43
2023-04-24T19:52:51.947Z,19.02
2023-04-24T19:57:57.217Z,14.95
2023-04-24T20:30:15.251Z,13.25
2023-04-24T20:35:18.947Z,8.13
2023-04-24T20:40:22.614Z,7.95
2023-04-24T20:45:28.662Z,9.05
2023-04-24T20:50:32.291Z,9.02
2023-04-24T20:55:36.091Z,11.32
2023-04-24T21:00:41.527Z,7.77
2023-04-24T21:05:45.262Z,9.95
2023-04-24T21:10:48.887Z,10.63
2023-04-24T21:15:54.200Z,8.98
2023-04-24T21:20:57.805Z,8.82
2023-04-24T21:26:01.698Z,8.65
2023-04-24T21:31:06.950Z,11.50
2023-04-24T21:36:10.963Z,9.90
2023-04-24T21:41:15.031Z,9.67
2023-04-24T21:46:20.414Z,9.03
2023-04-24T21:51:24.087Z,10.60
2023-04-24T21:56:28.014Z,9.77
2023-04-24T22:01:34.383Z,11.33
2023-04-24T22:06:38.265Z,9.20
2023-04-24T22:11:41.864Z,13.13
2023-04-24T22:16:47.211Z,9.48
2023-04-24T22:21:51.511Z,10.32
2023-04-24T22:26:55.120Z,9.93
2023-04-24T22:32:00.680Z,11.30
2023-04-24T22:37:04.520Z,8.68
2023-04-24T22:42:08.195Z,8.13
2023-04-24T22:47:13.599Z,8.95
2023-04-24T22:52:17.270Z,9.80
2023-04-24T22:57:20.910Z,9.35
2023-04-24T23:02:26.340Z,10.23
2023-04-24T23:07:29.995Z,9.63
2023-04-24T23:12:34.356Z,7.95
2023-04-24T23:17:39.954Z,10.55
2023-04-24T23:22:43.755Z,8.23
2023-04-24T23:27:47.341Z,10.10
2023-04-24T23:32:52.690Z,8.65
2023-04-24T23:37:56.463Z,8.32
2023-04-24T23:43:06.659Z,8.85
2023-04-24T23:48:13.113Z,10.18
2023-04-24T23:53:16.747Z,9.98
2023-04-24T23:58:20.473Z,7.00
